createdAt,value
2023-03-07T00:22:03.305Z,15.20
2023-03-07T00:25:48.836Z,14.50
2023-03-07T00:35:21.945Z,16.10
2023-03-07T00:50:39.645Z,14.60
2023-03-07T01:05:06.161Z,15.30
2023-03-07T01:20:09.629Z,15.40
2023-03-07T01:28:52.188Z,15.50
2023-03-07T01:48:37.281Z,15.30
2023-03-07T01:52:43.947Z,15.90
2023-03-07T01:56:21.422Z,15.20
2023-03-07T02:06:41.549Z,13.60
2023-03-07T02:30:44.140Z,15.40
2023-03-07T02:51:48.471Z,16.40
2023-03-07T03:12:30.168Z,14.20
2023-03-07T03:16:50.484Z,15.70
2023-03-07T03:36:29.256Z,15.20
2023-03-07T03:56:21.930Z,12.00
2023-03-07T04:06:52.421Z,13.90
2023-03-07T04:10:34.624Z,13.70
2023-03-07T04:14:06.892Z,12.60
2023-03-07T04:17:34.307Z,12.30
2023-03-07T04:27:02.681Z,11.40
2023-03-07T04:56:40.974Z,12.00
2023-03-07T05:01:14.745Z,11.00
2023-03-07T05:04:52.851Z,11.50
2023-03-07T05:13:35.151Z,11.30
2023-03-07T05:28:24.816Z,11.10
2023-03-07T05:32:00.022Z,11.10
2023-03-07T05:46:54.683Z,11.40
2023-03-07T05:51:18.678Z,12.20
2023-03-07T06:00:51.686Z,11.90
2023-03-07T06:16:41.561Z,13.80
2023-03-07T06:58:38.837Z,15.20
2023-03-07T07:02:21.411Z,15.00
2023-03-07T07:11:35.269Z,16.70
2023-03-07T07:21:36.205Z,14.70
2023-03-07T07:36:53.055Z,14.70
2023-03-07T07:46:41.180Z,13.20
2023-03-07T07:51:00.729Z,14.80
2023-03-07T07:54:09.308Z,14.40
2023-03-07T07:57:45.425Z,16.10
2023-03-07T08:00:56.320Z,15.20
2023-03-07T08:04:02.383Z,14.20
2023-03-07T08:07:13.961Z,14.00
2023-03-07T08:10:19.527Z,13.70
2023-03-07T08:13:28.967Z,13.30
2023-03-07T08:16:36.729Z,13.90
2023-03-07T08:20:09.509Z,13.00
2023-03-07T08:23:29.620Z,13.10
2023-03-07T08:26:36.684Z,13.70
2023-03-07T08:29:48.906Z,13.20
2023-03-07T08:32:57.300Z,13.80
2023-03-07T08:36:07.439Z,13.60
2023-03-07T08:39:14.027Z,13.70
2023-03-07T08:42:22.835Z,13.10
2023-03-07T08:45:26.801Z,13.60
2023-03-07T08:48:32.221Z,14.50
2023-03-07T08:57:09.205Z,13.90
2023-03-07T09:00:40.742Z,12.80
2023-03-07T09:09:25.907Z,13.40
2023-03-07T09:13:52.363Z,13.60
2023-03-07T09:17:44.426Z,14.30
2023-03-07T09:26:39.548Z,12.60
2023-03-07T09:30:08.455Z,12.00
2023-03-07T09:39:05.797Z,12.10
2023-03-07T09:54:01.414Z,13.30
2023-03-07T10:23:29.736Z,12.80
2023-03-07T10:37:42.760Z,13.60
2023-03-07T10:41:15.792Z,12.40
2023-03-07T10:49:50.310Z,12.90
2023-03-07T10:53:35.782Z,11.50
2023-03-07T10:57:19.337Z,11.30
2023-03-07T11:01:38.100Z,10.60
2023-03-07T11:04:54.936Z,11.50
2023-03-07T11:08:22.183Z,11.80
2023-03-07T11:11:39.767Z,10.90
2023-03-07T11:15:05.228Z,10.60
2023-03-07T11:18:45.250Z,10.50
2023-03-07T11:25:39.391Z,12.20
2023-03-07T11:29:25.278Z,11.50
2023-03-07T11:33:17.048Z,11.10
2023-03-07T11:36:46.711Z,10.30
2023-03-07T11:40:27.917Z,11.10
2023-03-07T11:44:08.827Z,12.20
2023-03-07T11:52:39.345Z,11.70
2023-03-07T11:57:08.434Z,10.80
2023-03-07T12:00:39.592Z,11.50
2023-03-07T12:04:55.064Z,14.10
2023-03-07T12:17:00.112Z,11.60
2023-03-07T12:20:43.025Z,13.40
2023-03-07T12:24:37.210Z,16.00
2023-03-07T12:28:25.149Z,13.20
2023-03-07T12:36:06.503Z,13.60
2023-03-07T12:43:37.232Z,13.60
2023-03-07T12:47:26.696Z,15.10
2023-03-07T12:51:29.808Z,13.60
2023-03-07T12:54:58.501Z,13.30
2023-03-07T12:59:07.979Z,13.00
2023-03-07T13:03:00.299Z,11.70
2023-03-07T13:06:14.532Z,12.30
2023-03-07T13:09:36.502Z,12.60
2023-03-07T13:14:10.831Z,12.80
2023-03-07T13:18:11.231Z,14.90
2023-03-07T13:25:54.971Z,11.40
2023-03-07T13:30:09.490Z,11.90
2023-03-07T13:34:00.843Z,11.10
2023-03-07T13:37:47.543Z,11.30
2023-03-07T13:41:06.657Z,10.70
2023-03-07T13:45:07.232Z,13.30
2023-03-07T13:49:31.937Z,11.20
2023-03-07T13:52:56.343Z,13.70
2023-03-07T13:56:27.714Z,24.10
2023-03-07T13:59:31.579Z,17.60
2023-03-07T14:05:25.413Z,20.30
2023-03-07T14:08:34.928Z,10.70
2023-03-07T14:11:48.140Z,11.20
2023-03-07T14:15:40.892Z,11.20
2023-03-07T14:19:43.287Z,10.60
2023-03-07T14:23:28.193Z,10.90
2023-03-07T14:26:45.689Z,11.90
2023-03-07T14:29:51.889Z,14.20
2023-03-07T14:32:56.360Z,12.70
2023-03-07T14:36:01.311Z,14.10
2023-03-07T14:39:06.187Z,13.60
2023-03-07T14:42:22.770Z,12.10
2023-03-07T14:45:46.667Z,13.20
2023-03-07T14:52:31.600Z,13.40
2023-03-07T14:55:44.578Z,14.30
2023-03-07T14:58:54.595Z,12.40
2023-03-07T15:01:59.714Z,10.40
2023-03-07T15:05:05.318Z,9.60
2023-03-07T15:09:13.638Z,9.80
2023-03-07T15:12:43.209Z,9.90
2023-03-07T15:16:09.845Z,9.10
2023-03-07T15:23:59.706Z,10.20
2023-03-07T15:27:36.407Z,10.90
2023-03-07T15:30:54.296Z,10.50
2023-03-07T15:34:40.709Z,12.80
2023-03-07T15:42:41.035Z,12.00
2023-03-07T15:46:34.666Z,12.00
2023-03-07T15:50:30.378Z,11.40
2023-03-07T15:54:25.692Z,10.60
2023-03-07T15:58:24.116Z,12.90
2023-03-07T16:02:43.065Z,15.60
2023-03-07T16:11:38.309Z,16.90
2023-03-07T16:15:08.783Z,17.60
2023-03-07T16:18:34.255Z,20.20
2023-03-07T16:23:09.936Z,26.20
2023-03-07T16:26:45.720Z,23.20
2023-03-07T16:29:54.432Z,16.90
2023-03-07T16:33:02.958Z,12.00
2023-03-07T16:36:32.252Z,9.80
2023-03-07T16:39:56.558Z,9.40
2023-03-07T16:43:07.078Z,10.30
2023-03-07T16:46:49.281Z,12.10
2023-03-07T16:51:24.427Z,11.90
2023-03-07T16:54:30.689Z,15.10
2023-03-07T16:57:37.264Z,17.30
2023-03-07T17:00:44.785Z,18.40
2023-03-07T17:03:51.845Z,20.70
2023-03-07T17:07:04.357Z,25.00
2023-03-07T17:10:16.426Z,21.20
2023-03-07T17:13:23.832Z,20.30
2023-03-07T17:16:31.272Z,20.40
2023-03-07T17:19:38.663Z,21.20
2023-03-07T17:25:50.730Z,19.20
2023-03-07T17:29:00.558Z,19.40
2023-03-07T17:32:09.726Z,18.20
2023-03-07T17:36:05.336Z,19.70
2023-03-07T17:39:14.610Z,20.30
2023-03-07T17:42:20.600Z,21.80
2023-03-07T17:45:28.068Z,18.70
2023-03-07T17:48:35.367Z,17.60
2023-03-07T17:51:51.417Z,17.40
2023-03-07T17:55:10.719Z,19.60
2023-03-07T17:58:46.645Z,18.50
2023-03-07T18:05:51.525Z,19.90
2023-03-07T18:09:01.507Z,19.10
2023-03-07T18:12:07.052Z,20.00
2023-03-07T18:15:18.672Z,20.20
2023-03-07T18:18:26.562Z,29.40
2023-03-07T18:21:31.753Z,21.90
2023-03-07T18:24:39.483Z,17.50
2023-03-07T18:31:48.196Z,18.10
2023-03-07T18:35:19.401Z,16.10
2023-03-07T18:38:39.895Z,16.20
2023-03-07T18:42:06.125Z,16.10
2023-03-07T18:45:37.314Z,19.00
2023-03-07T18:49:09.292Z,17.70
2023-03-07T18:52:18.282Z,19.40
2023-03-07T18:55:26.031Z,19.40
2023-03-07T18:58:32.320Z,19.10
2023-03-07T19:01:45.254Z,18.90
2023-03-07T19:05:20.332Z,18.80
2023-03-07T19:13:27.903Z,17.40
2023-03-07T19:17:07.405Z,17.60
2023-03-07T19:20:52.884Z,17.60
2023-03-07T19:24:05.606Z,18.20
2023-03-07T19:27:17.571Z,17.60
2023-03-07T19:30:21.460Z,17.60
2023-03-07T19:33:25.738Z,17.40
2023-03-07T19:36:34.835Z,18.50
2023-03-07T19:39:39.788Z,20.60
2023-03-07T19:42:45.025Z,18.20
2023-03-07T19:45:56.766Z,20.40
2023-03-07T19:49:02.742Z,19.70
2023-03-07T19:52:06.663Z,18.60
2023-03-07T19:55:12.979Z,19.00
2023-03-07T19:58:21.921Z,17.90
2023-03-07T20:01:34.491Z,19.40
2023-03-07T20:04:59.741Z,17.60
2023-03-07T20:08:20.744Z,17.80
2023-03-07T20:15:07.007Z,17.30
2023-03-07T20:18:17.791Z,18.80
2023-03-07T20:21:28.300Z,18.80
2023-03-07T20:24:33.406Z,17.00
2023-03-07T20:27:42.285Z,18.30
2023-03-07T20:30:47.496Z,17.50
2023-03-07T20:33:52.879Z,16.90
2023-03-07T20:36:57.280Z,17.00
2023-03-07T20:40:06.727Z,17.60
2023-03-07T20:43:12.719Z,18.70
2023-03-07T20:46:18.704Z,20.10
2023-03-07T20:49:31.771Z,18.60
2023-03-07T20:52:39.101Z,18.20
2023-03-07T20:56:03.501Z,17.30
2023-03-07T20:59:08.262Z,17.70
2023-03-07T21:02:41.439Z,17.60
2023-03-07T21:06:19.922Z,17.10
2023-03-07T21:14:48.015Z,16.90
2023-03-07T21:18:48.755Z,16.50
2023-03-07T21:22:22.446Z,15.40
2023-03-07T21:26:06.940Z,16.80
2023-03-07T21:29:40.000Z,15.50
2023-03-07T21:33:28.570Z,18.10
2023-03-07T21:37:08.161Z,15.50
2023-03-07T21:45:38.790Z,17.60
2023-03-07T21:49:36.950Z,17.10
2023-03-07T21:53:02.916Z,16.50
2023-03-07T21:56:37.427Z,17.20
2023-03-07T22:11:40.954Z,16.80
2023-03-07T22:15:12.037Z,18.90
2023-03-07T22:23:14.561Z,16.50
2023-03-07T22:26:49.638Z,17.80
2023-03-07T22:30:52.714Z,17.70
2023-03-07T22:34:46.906Z,18.00
2023-03-07T22:43:16.847Z,17.40
2023-03-07T22:46:34.782Z,16.70
2023-03-07T22:50:34.959Z,17.10
2023-03-07T22:54:12.060Z,14.90
2023-03-07T22:57:55.745Z,15.70
2023-03-07T23:05:48.328Z,17.80
2023-03-07T23:09:24.867Z,15.80
2023-03-07T23:22:45.275Z,16.50
2023-03-07T23:26:23.583Z,15.10
2023-03-07T23:29:34.195Z,15.20
2023-03-07T23:36:26.541Z,15.70
2023-03-07T23:39:47.170Z,15.20
2023-03-07T23:43:00.298Z,14.50
2023-03-07T23:46:16.584Z,14.60
